메인 페이지
METAR-TAF:

METAR-TAF

공항 :

스탠리, 포클랜드 제도

위도: 51-49S, 경도: 058-27W, 고도: 74m

현재 날씨관측

예보는 21분 전, 15:20시(UTC)에 발표되었습니다.
서남서12kt
온도 1°C
습도 86%
기압 1008 hPa
시정 10km 이상
약한비,

METAR: EGYP 301520Z AUTO 24012KT 9999 -RA BKN013/// 01/M01 Q1008

시각: 12:41 (15:41 UTC)

예보

예보는 2 시간 0분 전, 13:41시(UTC)에 발표되었습니다.
예보 대상 시간: 30일 15시부터 31일 09시까지 (UTC)
서남서15kt
시정 10km 이상
고도 2500ft 상공 구름 보통
일시적
30일 15시부터 30일 21시까지 (UTC)
남서15kt, 순간 최대 풍속 25kt
확률 40% :
일시적
30일 15시부터 30일 21시까지 (UTC)
시정: 1500m
고도 300ft 상공 구름 보통
고도 800ft 상공 구름 조금, 적란운.
소낙눈
전환 중
30일 18시부터 30일 21시까지 (UTC)
15kt
확률 30% :
일시적
30일 21시부터 31일 03시까지 (UTC)
15kt, 순간 최대 풍속 25kt
시정: 3000m
고도 1200ft 상공 구름 보통
약한소낙눈,

TAF: EGYP 301341Z 3015/3109 24015KT 9999 SCT025 TEMPO 3015/3021 23015G25KT PROB40 TEMPO 3015/3021 1500 SHSN SCT003 FEW008CB BECMG 3018/3021 28015KT PROB30 TEMPO 3021/3103 26015G25KT 3000 -SHSN SCT012

4,000개 이상의 공항 관측 자료 및 예보 (METAR 및 TAF 보고).

지도상에서 검색 가능한 기상관측소가 노란 점과 빨간 점으로 표시되어 있습니다.

기상관측소 명을 보려면 표시 위로 마우스를 이동하세요.

날씨 관측과 예보를 보려면 클릭하세요.

지도 변경 : 확대하려면 엑스 표시가 있는 녹색 버튼, 축소하려면 빼기 표시가 있는 녹색 버튼, 다음 페이지의 지도를 보려면 녹색 화살표를 클릭하세요.


METAR-TAF: